createdAt,value
2019-04-10T00:12:56.177Z,100.00
2019-04-10T00:28:01.178Z,100.00
2019-04-10T00:43:03.856Z,100.00
2019-04-10T00:58:06.413Z,100.00
2019-04-10T01:13:10.334Z,100.00
2019-04-10T01:28:14.494Z,100.00
2019-04-10T01:43:19.882Z,100.00
2019-04-10T01:58:23.294Z,100.00
2019-04-10T02:13:26.276Z,100.00
2019-04-10T02:28:29.196Z,100.00
2019-04-10T02:43:33.778Z,100.00
2019-04-10T02:58:36.469Z,100.00
2019-04-10T03:13:39.063Z,100.00
2019-04-10T03:28:41.645Z,100.00
2019-04-10T03:43:45.755Z,100.00
2019-04-10T03:58:49.445Z,100.00
2019-04-10T04:13:52.293Z,100.00
2019-04-10T04:28:55.715Z,100.00
2019-04-10T04:43:58.568Z,100.00
2019-04-10T04:59:01.477Z,100.00
2019-04-10T05:14:04.882Z,100.00
2019-04-10T05:29:08.975Z,100.00
2019-04-10T05:44:13.411Z,100.00
2019-04-10T05:59:17.478Z,100.00
2019-04-10T06:14:20.054Z,100.00
2019-04-10T06:29:23.267Z,100.00
2019-04-10T06:44:28.005Z,100.00
2019-04-10T06:59:32.456Z,100.00
2019-04-10T07:14:36.960Z,100.00
2019-04-10T07:29:40.721Z,100.00
2019-04-10T07:44:43.922Z,100.00
2019-04-10T07:59:47.900Z,100.00
2019-04-10T08:14:52.061Z,100.00
2019-04-10T08:29:54.853Z,97.72
2019-04-10T08:44:58.957Z,90.14
2019-04-10T09:00:02.672Z,88.47
2019-04-10T09:15:06.330Z,84.33
2019-04-10T09:30:09.322Z,72.08
2019-04-10T09:45:13.535Z,63.20
2019-04-10T10:00:16.711Z,59.35
2019-04-10T10:15:19.562Z,55.99
2019-04-10T10:30:23.049Z,56.30
2019-04-10T10:45:29.060Z,54.63
2019-04-10T11:00:31.850Z,56.09
2019-04-10T11:15:37.705Z,53.41
2019-04-10T11:30:41.154Z,61.00
2019-04-10T11:45:51.262Z,65.25
2019-04-10T12:00:52.412Z,66.66
2019-04-10T12:15:54.689Z,63.56
2019-04-10T12:30:57.533Z,61.74
2019-04-10T12:46:02.382Z,64.57
2019-04-10T13:01:06.776Z,68.89
2019-04-10T13:16:09.881Z,67.13
2019-04-10T13:31:12.980Z,66.70
2019-04-10T13:46:16.934Z,68.89
2019-04-10T14:01:27.148Z,70.48
2019-04-10T14:16:30.906Z,72.07
2019-04-10T14:31:37.378Z,71.87
2019-04-10T14:46:40.781Z,77.76
2019-04-10T15:01:44.331Z,76.75
2019-04-10T15:16:56.470Z,73.50
2019-04-10T15:31:52.954Z,70.82
2019-04-10T15:47:08.695Z,72.26
2019-04-10T16:02:01.891Z,72.55
2019-04-10T16:32:39.752Z,77.18
2019-04-10T16:47:44.030Z,79.96
2019-04-10T17:02:49.056Z,78.46
2019-04-10T17:17:52.966Z,81.83
2019-04-10T17:32:56.372Z,82.33
2019-04-10T17:47:59.233Z,88.63
2019-04-10T18:03:03.312Z,93.80
2019-04-10T18:18:07.316Z,95.50
2019-04-10T18:33:12.072Z,97.49
2019-04-10T18:48:14.814Z,100.00
2019-04-10T19:03:46.226Z,100.00
2019-04-10T19:18:43.818Z,100.00
2019-04-10T19:33:47.004Z,100.00
2019-04-10T19:48:51.620Z,100.00
2019-04-10T20:03:54.456Z,100.00
2019-04-10T20:18:57.160Z,100.00
2019-04-10T20:34:00.747Z,100.00
2019-04-10T20:49:04.793Z,100.00
2019-04-10T21:04:07.728Z,100.00
2019-04-10T21:19:11.128Z,100.00
2019-04-10T21:34:19.629Z,100.00
2019-04-10T21:49:24.061Z,100.00
2019-04-10T22:04:27.358Z,100.00
2019-04-10T22:19:30.601Z,100.00
2019-04-10T22:34:34.295Z,100.00
2019-04-10T22:49:37.131Z,100.00
2019-04-10T23:04:42.751Z,100.00
2019-04-10T23:19:46.530Z,100.00
2019-04-10T23:34:50.692Z,100.00
2019-04-10T23:49:54.111Z,100.00
